sensor_id;sensor_type;location;lat;lon;timestamp;temperature;humidity
30186;DHT22;31152;49.190;8.122;2022-08-19T00:01:46;22.00;99.90
30186;DHT22;31152;49.190;8.122;2022-08-19T00:04:22;21.90;99.90
30186;DHT22;31152;49.190;8.122;2022-08-19T00:06:49;21.90;99.90
30186;DHT22;31152;49.190;8.122;2022-08-19T00:09:18;21.90;99.90
30186;DHT22;31152;49.190;8.122;2022-08-19T00:11:45;21.90;99.90
30186;DHT22;31152;49.190;8.122;2022-08-19T00:14:15;21.80;99.90
30186;DHT22;31152;49.190;8.122;2022-08-19T00:16:46;21.80;99.90
30186;DHT22;31152;49.190;8.122;2022-08-19T00:19:14;21.80;99.90
30186;DHT22;31152;49.190;8.122;2022-08-19T00:21:42;21.80;99.90
30186;DHT22;31152;49.190;8.122;2022-08-19T00:24:11;21.80;99.90
30186;DHT22;31152;49.190;8.122;2022-08-19T00:26:39;21.70;99.90
30186;DHT22;31152;49.190;8.122;2022-08-19T00:29:07;21.70;99.90
30186;DHT22;31152;49.190;8.122;2022-08-19T00:31:34;21.70;99.90
30186;DHT22;31152;49.190;8.122;2022-08-19T00:34:02;21.70;99.90
30186;DHT22;31152;49.190;8.122;2022-08-19T00:36:29;21.70;99.90
30186;DHT22;31152;49.190;8.122;2022-08-19T00:38:56;21.70;99.90
30186;DHT22;31152;49.190;8.122;2022-08-19T00:41:28;21.70;99.90
30186;DHT22;31152;49.190;8.122;2022-08-19T00:44:13;21.70;99.90
30186;DHT22;31152;49.190;8.122;2022-08-19T00:46:43;21.60;99.90
30186;DHT22;31152;49.190;8.122;2022-08-19T00:49:33;21.70;99.90
30186;DHT22;31152;49.190;8.122;2022-08-19T00:52:13;21.60;99.90
30186;DHT22;31152;49.190;8.122;2022-08-19T00:54:42;21.60;99.90
30186;DHT22;31152;49.190;8.122;2022-08-19T00:57:12;21.60;99.90
30186;DHT22;31152;49.190;8.122;2022-08-19T00:59:46;21.60;99.90
30186;DHT22;31152;49.190;8.122;2022-08-19T01:02:29;21.60;99.90
30186;DHT22;31152;49.190;8.122;2022-08-19T01:04:56;21.60;99.90
30186;DHT22;31152;49.190;8.122;2022-08-19T01:07:23;21.60;99.90
30186;DHT22;31152;49.190;8.122;2022-08-19T01:09:50;21.60;99.90
30186;DHT22;31152;49.190;8.122;2022-08-19T01:12:19;21.60;99.90
30186;DHT22;31152;49.190;8.122;2022-08-19T01:14:47;21.60;99.90
30186;DHT22;31152;49.190;8.122;2022-08-19T01:17:15;21.50;99.90
30186;DHT22;31152;49.190;8.122;2022-08-19T01:19:43;21.50;99.90
30186;DHT22;31152;49.190;8.122;2022-08-19T01:24:58;21.50;99.90
30186;DHT22;31152;49.190;8.122;2022-08-19T01:27:25;21.50;99.90
30186;DHT22;31152;49.190;8.122;2022-08-19T01:29:58;21.60;99.90
30186;DHT22;31152;49.190;8.122;2022-08-19T01:32:25;21.50;99.90
30186;DHT22;31152;49.190;8.122;2022-08-19T01:35:00;21.50;99.90
30186;DHT22;31152;49.190;8.122;2022-08-19T01:37:28;21.50;99.90
30186;DHT22;31152;49.190;8.122;2022-08-19T01:39:57;21.50;99.90
30186;DHT22;31152;49.190;8.122;2022-08-19T01:42:24;21.50;99.90
30186;DHT22;31152;49.190;8.122;2022-08-19T01:44:58;21.50;99.90
30186;DHT22;31152;49.190;8.122;2022-08-19T01:47:28;21.50;99.90
30186;DHT22;31152;49.190;8.122;2022-08-19T01:49:55;21.50;99.90
30186;DHT22;31152;49.190;8.122;2022-08-19T01:52:24;21.50;99.90
30186;DHT22;31152;49.190;8.122;2022-08-19T01:54:51;21.40;99.90
30186;DHT22;31152;49.190;8.122;2022-08-19T01:57:17;21.40;99.90
30186;DHT22;31152;49.190;8.122;2022-08-19T01:59:45;21.40;99.90
30186;DHT22;31152;49.190;8.122;2022-08-19T02:02:12;21.40;99.90
30186;DHT22;31152;49.190;8.122;2022-08-19T02:04:39;21.40;99.90
30186;DHT22;31152;49.190;8.122;2022-08-19T02:07:06;21.40;99.90
30186;DHT22;31152;49.190;8.122;2022-08-19T02:09:35;21.40;99.90
30186;DHT22;31152;49.190;8.122;2022-08-19T02:12:03;21.40;99.90
30186;DHT22;31152;49.190;8.122;2022-08-19T02:14:30;21.40;99.90
30186;DHT22;31152;49.190;8.122;2022-08-19T02:16:57;21.40;99.90
30186;DHT22;31152;49.190;8.122;2022-08-19T02:19:26;21.40;99.90
30186;DHT22;31152;49.190;8.122;2022-08-19T02:21:53;21.30;99.90
30186;DHT22;31152;49.190;8.122;2022-08-19T02:24:19;21.30;99.90
30186;DHT22;31152;49.190;8.122;2022-08-19T02:26:46;21.30;99.90
30186;DHT22;31152;49.190;8.122;2022-08-19T02:29:13;21.30;99.90
30186;DHT22;31152;49.190;8.122;2022-08-19T02:31:42;21.30;99.90
30186;DHT22;31152;49.190;8.122;2022-08-19T02:34:09;21.30;99.90
30186;DHT22;31152;49.190;8.122;2022-08-19T02:36:36;21.30;99.90
30186;DHT22;31152;49.190;8.122;2022-08-19T02:39:08;21.30;99.90
30186;DHT22;31152;49.190;8.122;2022-08-19T02:41:37;21.30;99.90
30186;DHT22;31152;49.190;8.122;2022-08-19T02:44:05;21.30;99.90
30186;DHT22;31152;49.190;8.122;2022-08-19T02:46:51;21.30;99.90
30186;DHT22;31152;49.190;8.122;2022-08-19T02:49:19;21.30;99.90
30186;DHT22;31152;49.190;8.122;2022-08-19T02:51:46;21.30;99.90
30186;DHT22;31152;49.190;8.122;2022-08-19T02:54:14;21.20;99.90
30186;DHT22;31152;49.190;8.122;2022-08-19T02:56:42;21.30;99.90
30186;DHT22;31152;49.190;8.122;2022-08-19T02:59:09;21.20;99.90
30186;DHT22;31152;49.190;8.122;2022-08-19T03:01:40;21.20;99.90
30186;DHT22;31152;49.190;8.122;2022-08-19T03:04:11;21.20;99.90
30186;DHT22;31152;49.190;8.122;2022-08-19T03:06:42;21.10;99.90
30186;DHT22;31152;49.190;8.122;2022-08-19T03:09:11;21.10;99.90
30186;DHT22;31152;49.190;8.122;2022-08-19T03:11:38;21.10;99.90
30186;DHT22;31152;49.190;8.122;2022-08-19T03:14:08;21.10;99.90
30186;DHT22;31152;49.190;8.122;2022-08-19T03:16:45;21.10;99.90
30186;DHT22;31152;49.190;8.122;2022-08-19T03:19:17;21.00;99.90
30186;DHT22;31152;49.190;8.122;2022-08-19T03:21:47;21.00;99.90
30186;DHT22;31152;49.190;8.122;2022-08-19T03:24:15;21.00;99.90
30186;DHT22;31152;49.190;8.122;2022-08-19T03:26:43;20.90;99.90
30186;DHT22;31152;49.190;8.122;2022-08-19T03:29:11;20.90;99.90
30186;DHT22;31152;49.190;8.122;2022-08-19T03:31:40;20.90;99.90
30186;DHT22;31152;49.190;8.122;2022-08-19T03:34:25;20.90;99.90
30186;DHT22;31152;49.190;8.122;2022-08-19T03:36:57;20.80;99.90
30186;DHT22;31152;49.190;8.122;2022-08-19T03:39:27;20.80;99.90
30186;DHT22;31152;49.190;8.122;2022-08-19T03:41:54;20.70;99.90
30186;DHT22;31152;49.190;8.122;2022-08-19T03:44:46;20.70;99.90
30186;DHT22;31152;49.190;8.122;2022-08-19T03:47:13;20.60;99.90
30186;DHT22;31152;49.190;8.122;2022-08-19T03:49:45;20.70;99.90
30186;DHT22;31152;49.190;8.122;2022-08-19T03:52:13;20.60;99.90
30186;DHT22;31152;49.190;8.122;2022-08-19T03:54:40;20.70;99.90
30186;DHT22;31152;49.190;8.122;2022-08-19T03:57:07;20.70;99.90
30186;DHT22;31152;49.190;8.122;2022-08-19T03:59:36;20.70;99.90
30186;DHT22;31152;49.190;8.122;2022-08-19T04:02:09;20.70;99.90
30186;DHT22;31152;49.190;8.122;2022-08-19T04:04:42;20.60;99.90
30186;DHT22;31152;49.190;8.122;2022-08-19T04:07:11;20.60;99.90
30186;DHT22;31152;49.190;8.122;2022-08-19T04:09:42;20.50;99.90
30186;DHT22;31152;49.190;8.122;2022-08-19T04:12:11;20.50;99.90
30186;DHT22;31152;49.190;8.122;2022-08-19T04:14:38;20.50;99.90
30186;DHT22;31152;49.190;8.122;2022-08-19T04:17:08;20.50;99.90
30186;DHT22;31152;49.190;8.122;2022-08-19T04:19:36;20.50;99.90
30186;DHT22;31152;49.190;8.122;2022-08-19T04:22:03;20.60;99.90
30186;DHT22;31152;49.190;8.122;2022-08-19T04:24:31;20.60;99.90
30186;DHT22;31152;49.190;8.122;2022-08-19T04:27:00;20.70;99.90
30186;DHT22;31152;49.190;8.122;2022-08-19T04:29:27;20.70;99.90
30186;DHT22;31152;49.190;8.122;2022-08-19T04:31:56;20.80;99.90
30186;DHT22;31152;49.190;8.122;2022-08-19T04:34:25;20.90;99.90
30186;DHT22;31152;49.190;8.122;2022-08-19T04:36:54;20.90;99.90
30186;DHT22;31152;49.190;8.122;2022-08-19T04:39:25;21.00;99.90
30186;DHT22;31152;49.190;8.122;2022-08-19T04:42:11;21.00;99.90
30186;DHT22;31152;49.190;8.122;2022-08-19T04:44:56;21.00;99.90
30186;DHT22;31152;49.190;8.122;2022-08-19T04:47:25;21.10;99.90
30186;DHT22;31152;49.190;8.122;2022-08-19T04:50:12;21.10;99.90
30186;DHT22;31152;49.190;8.122;2022-08-19T04:52:39;21.10;99.90
30186;DHT22;31152;49.190;8.122;2022-08-19T04:55:10;21.10;99.90
30186;DHT22;31152;49.190;8.122;2022-08-19T04:57:39;21.10;99.90
30186;DHT22;31152;49.190;8.122;2022-08-19T05:00:08;21.20;99.90
30186;DHT22;31152;49.190;8.122;2022-08-19T05:02:35;21.20;99.90
30186;DHT22;31152;49.190;8.122;2022-08-19T05:05:03;21.20;99.90
30186;DHT22;31152;49.190;8.122;2022-08-19T05:07:29;21.20;99.90
30186;DHT22;31152;49.190;8.122;2022-08-19T05:09:57;21.30;99.90
30186;DHT22;31152;49.190;8.122;2022-08-19T05:12:25;21.30;99.90
30186;DHT22;31152;49.190;8.122;2022-08-19T05:14:58;21.30;99.90
30186;DHT22;31152;49.190;8.122;2022-08-19T05:17:26;21.30;99.90
30186;DHT22;31152;49.190;8.122;2022-08-19T05:19:56;21.30;99.90
30186;DHT22;31152;49.190;8.122;2022-08-19T05:22:43;21.30;99.90
30186;DHT22;31152;49.190;8.122;2022-08-19T05:25:13;21.30;99.90
30186;DHT22;31152;49.190;8.122;2022-08-19T05:27:41;21.30;99.90
30186;DHT22;31152;49.190;8.122;2022-08-19T05:30:10;21.40;99.90
30186;DHT22;31152;49.190;8.122;2022-08-19T05:32:38;21.40;99.90
30186;DHT22;31152;49.190;8.122;2022-08-19T05:35:05;21.40;99.90
30186;DHT22;31152;49.190;8.122;2022-08-19T05:37:32;21.40;99.90
30186;DHT22;31152;49.190;8.122;2022-08-19T05:40:01;21.40;99.90
30186;DHT22;31152;49.190;8.122;2022-08-19T05:42:31;21.40;99.90
30186;DHT22;31152;49.190;8.122;2022-08-19T05:45:02;21.50;99.90
30186;DHT22;31152;49.190;8.122;2022-08-19T05:47:30;21.50;99.90
30186;DHT22;31152;49.190;8.122;2022-08-19T05:49:59;21.50;99.90
30186;DHT22;31152;49.190;8.122;2022-08-19T05:52:30;21.50;99.90
30186;DHT22;31152;49.190;8.122;2022-08-19T05:54:57;21.60;99.90
30186;DHT22;31152;49.190;8.122;2022-08-19T05:57:24;21.60;99.90
30186;DHT22;31152;49.190;8.122;2022-08-19T05:59:51;21.70;99.90
30186;DHT22;31152;49.190;8.122;2022-08-19T06:02:25;21.70;99.90
30186;DHT22;31152;49.190;8.122;2022-08-19T06:04:52;21.70;99.90
30186;DHT22;31152;49.190;8.122;2022-08-19T06:07:19;21.80;99.90
30186;DHT22;31152;49.190;8.122;2022-08-19T06:09:46;21.70;99.90
30186;DHT22;31152;49.190;8.122;2022-08-19T06:12:28;21.70;99.90
30186;DHT22;31152;49.190;8.122;2022-08-19T06:14:58;21.70;99.90
30186;DHT22;31152;49.190;8.122;2022-08-19T06:17:26;21.60;99.90
30186;DHT22;31152;49.190;8.122;2022-08-19T06:19:53;21.60;99.90
30186;DHT22;31152;49.190;8.122;2022-08-19T06:22:20;21.50;99.90
30186;DHT22;31152;49.190;8.122;2022-08-19T06:24:47;21.50;99.90
30186;DHT22;31152;49.190;8.122;2022-08-19T06:27:14;21.40;99.90
30186;DHT22;31152;49.190;8.122;2022-08-19T06:29:42;21.40;99.90
30186;DHT22;31152;49.190;8.122;2022-08-19T06:32:09;21.40;99.90
30186;DHT22;31152;49.190;8.122;2022-08-19T06:34:36;21.50;99.90
30186;DHT22;31152;49.190;8.122;2022-08-19T06:37:03;21.50;99.90
30186;DHT22;31152;49.190;8.122;2022-08-19T06:39:36;21.50;99.90
30186;DHT22;31152;49.190;8.122;2022-08-19T06:42:05;21.50;99.90
30186;DHT22;31152;49.190;8.122;2022-08-19T06:44:40;21.50;99.90
30186;DHT22;31152;49.190;8.122;2022-08-19T06:47:10;21.60;99.90
30186;DHT22;31152;49.190;8.122;2022-08-19T06:49:49;21.60;99.90
30186;DHT22;31152;49.190;8.122;2022-08-19T06:52:17;21.60;99.90
30186;DHT22;31152;49.190;8.122;2022-08-19T06:54:46;21.60;99.90
30186;DHT22;31152;49.190;8.122;2022-08-19T06:57:23;21.70;99.90
30186;DHT22;31152;49.190;8.122;2022-08-19T06:59:50;21.70;99.90
30186;DHT22;31152;49.190;8.122;2022-08-19T07:02:17;21.70;99.90
30186;DHT22;31152;49.190;8.122;2022-08-19T07:04:49;21.70;99.90
30186;DHT22;31152;49.190;8.122;2022-08-19T07:07:21;21.80;99.90
30186;DHT22;31152;49.190;8.122;2022-08-19T07:09:50;21.90;99.90
30186;DHT22;31152;49.190;8.122;2022-08-19T07:12:29;22.10;99.90
30186;DHT22;31152;49.190;8.122;2022-08-19T07:15:03;22.10;99.90
30186;DHT22;31152;49.190;8.122;2022-08-19T07:17:30;22.10;99.90
30186;DHT22;31152;49.190;8.122;2022-08-19T07:20:01;22.20;99.90
30186;DHT22;31152;49.190;8.122;2022-08-19T07:22:38;22.20;99.90
30186;DHT22;31152;49.190;8.122;2022-08-19T07:25:07;22.30;99.90
30186;DHT22;31152;49.190;8.122;2022-08-19T07:27:36;22.30;99.90
30186;DHT22;31152;49.190;8.122;2022-08-19T07:30:06;22.40;99.90
30186;DHT22;31152;49.190;8.122;2022-08-19T07:32:40;22.50;99.90
30186;DHT22;31152;49.190;8.122;2022-08-19T07:35:07;22.50;99.90
30186;DHT22;31152;49.190;8.122;2022-08-19T07:37:37;22.60;99.90
30186;DHT22;31152;49.190;8.122;2022-08-19T07:40:06;22.60;99.90
30186;DHT22;31152;49.190;8.122;2022-08-19T07:42:36;22.70;99.90
30186;DHT22;31152;49.190;8.122;2022-08-19T07:45:03;22.90;99.90
30186;DHT22;31152;49.190;8.122;2022-08-19T07:47:30;23.00;99.90
30186;DHT22;31152;49.190;8.122;2022-08-19T07:50:18;23.10;99.90
30186;DHT22;31152;49.190;8.122;2022-08-19T07:52:47;23.30;99.90
30186;DHT22;31152;49.190;8.122;2022-08-19T07:55:23;23.40;99.90
30186;DHT22;31152;49.190;8.122;2022-08-19T07:58:09;23.40;99.90
30186;DHT22;31152;49.190;8.122;2022-08-19T08:00:39;23.50;99.90
30186;DHT22;31152;49.190;8.122;2022-08-19T08:03:09;23.60;99.90
30186;DHT22;31152;49.190;8.122;2022-08-19T08:05:36;23.60;99.90
30186;DHT22;31152;49.190;8.122;2022-08-19T08:08:24;23.70;99.90
30186;DHT22;31152;49.190;8.122;2022-08-19T08:11:16;23.80;99.90
30186;DHT22;31152;49.190;8.122;2022-08-19T08:13:45;23.90;99.90
30186;DHT22;31152;49.190;8.122;2022-08-19T08:16:27;24.00;99.90
30186;DHT22;31152;49.190;8.122;2022-08-19T08:18:57;24.20;99.90
30186;DHT22;31152;49.190;8.122;2022-08-19T08:21:27;24.30;99.90
30186;DHT22;31152;49.190;8.122;2022-08-19T08:23:54;24.40;99.90
30186;DHT22;31152;49.190;8.122;2022-08-19T08:26:23;24.50;99.90
30186;DHT22;31152;49.190;8.122;2022-08-19T08:28:54;24.60;99.90
30186;DHT22;31152;49.190;8.122;2022-08-19T08:31:21;24.60;99.90
30186;DHT22;31152;49.190;8.122;2022-08-19T08:33:48;24.70;99.90
30186;DHT22;31152;49.190;8.122;2022-08-19T08:36:15;24.80;99.90
30186;DHT22;31152;49.190;8.122;2022-08-19T08:38:43;24.90;99.90
30186;DHT22;31152;49.190;8.122;2022-08-19T08:41:47;25.00;99.80
30186;DHT22;31152;49.190;8.122;2022-08-19T08:44:20;25.00;99.80
30186;DHT22;31152;49.190;8.122;2022-08-19T08:46:53;25.10;99.20
30186;DHT22;31152;49.190;8.122;2022-08-19T08:52:11;25.20;98.80
30186;DHT22;31152;49.190;8.122;2022-08-19T08:54:45;25.20;98.90
30186;DHT22;31152;49.190;8.122;2022-08-19T08:57:34;25.20;99.00
30186;DHT22;31152;49.190;8.122;2022-08-19T09:00:10;25.20;98.70
30186;DHT22;31152;49.190;8.122;2022-08-19T09:02:44;25.30;98.90
30186;DHT22;31152;49.190;8.122;2022-08-19T09:05:18;25.30;98.40
30186;DHT22;31152;49.190;8.122;2022-08-19T09:08:08;25.40;98.50
30186;DHT22;31152;49.190;8.122;2022-08-19T09:10:44;25.60;98.10
30186;DHT22;31152;49.190;8.122;2022-08-19T09:14:32;25.70;97.90
30186;DHT22;31152;49.190;8.122;2022-08-19T09:16:25;25.90;97.60
30186;DHT22;31152;49.190;8.122;2022-08-19T09:18:57;26.00;97.30
30186;DHT22;31152;49.190;8.122;2022-08-19T09:21:28;26.00;96.90
30186;DHT22;31152;49.190;8.122;2022-08-19T09:23:59;26.10;97.10
30186;DHT22;31152;49.190;8.122;2022-08-19T09:26:29;26.20;97.10
30186;DHT22;31152;49.190;8.122;2022-08-19T09:29:16;26.30;96.40
30186;DHT22;31152;49.190;8.122;2022-08-19T09:31:43;26.30;96.10
30186;DHT22;31152;49.190;8.122;2022-08-19T09:34:14;26.20;96.00
30186;DHT22;31152;49.190;8.122;2022-08-19T09:36:48;26.10;96.40
30186;DHT22;31152;49.190;8.122;2022-08-19T09:39:21;26.00;95.80
30186;DHT22;31152;49.190;8.122;2022-08-19T09:41:48;26.00;95.80
30186;DHT22;31152;49.190;8.122;2022-08-19T09:44:19;25.90;95.40
30186;DHT22;31152;49.190;8.122;2022-08-19T09:46:47;26.00;94.80
30186;DHT22;31152;49.190;8.122;2022-08-19T09:49:16;26.10;94.80
30186;DHT22;31152;49.190;8.122;2022-08-19T09:51:45;26.00;94.50
30186;DHT22;31152;49.190;8.122;2022-08-19T09:54:17;25.90;93.90
30186;DHT22;31152;49.190;8.122;2022-08-19T09:56:51;25.80;94.10
30186;DHT22;31152;49.190;8.122;2022-08-19T09:59:18;25.70;94.40
30186;DHT22;31152;49.190;8.122;2022-08-19T10:01:45;25.50;94.60
30186;DHT22;31152;49.190;8.122;2022-08-19T10:04:12;25.50;95.00
30186;DHT22;31152;49.190;8.122;2022-08-19T10:06:49;25.40;95.20
30186;DHT22;31152;49.190;8.122;2022-08-19T10:09:19;25.40;95.50
30186;DHT22;31152;49.190;8.122;2022-08-19T10:11:54;25.50;95.60
30186;DHT22;31152;49.190;8.122;2022-08-19T10:14:21;25.60;95.50
30186;DHT22;31152;49.190;8.122;2022-08-19T10:16:50;25.60;95.20
30186;DHT22;31152;49.190;8.122;2022-08-19T10:19:22;25.70;95.00
30186;DHT22;31152;49.190;8.122;2022-08-19T10:21:52;26.00;94.80
30186;DHT22;31152;49.190;8.122;2022-08-19T10:24:19;26.20;93.50
30186;DHT22;31152;49.190;8.122;2022-08-19T10:26:47;26.60;93.10
30186;DHT22;31152;49.190;8.122;2022-08-19T10:29:26;26.70;92.80
30186;DHT22;31152;49.190;8.122;2022-08-19T10:32:02;26.80;92.90
30186;DHT22;31152;49.190;8.122;2022-08-19T10:34:30;26.70;92.90
30186;DHT22;31152;49.190;8.122;2022-08-19T10:36:59;26.60;92.20
30186;DHT22;31152;49.190;8.122;2022-08-19T10:39:29;26.50;91.10
30186;DHT22;31152;49.190;8.122;2022-08-19T10:41:58;26.30;91.40
30186;DHT22;31152;49.190;8.122;2022-08-19T10:44:25;26.40;91.40
30186;DHT22;31152;49.190;8.122;2022-08-19T10:46:58;26.50;91.50
30186;DHT22;31152;49.190;8.122;2022-08-19T10:49:30;26.60;90.80
30186;DHT22;31152;49.190;8.122;2022-08-19T10:52:17;26.80;90.20
30186;DHT22;31152;49.190;8.122;2022-08-19T10:55:05;27.10;90.30
30186;DHT22;31152;49.190;8.122;2022-08-19T10:57:55;27.20;89.50
30186;DHT22;31152;49.190;8.122;2022-08-19T11:00:30;27.20;88.00
30186;DHT22;31152;49.190;8.122;2022-08-19T11:03:00;27.20;88.90
30186;DHT22;31152;49.190;8.122;2022-08-19T11:05:29;27.10;87.90
30186;DHT22;31152;49.190;8.122;2022-08-19T11:08:06;26.70;89.30
30186;DHT22;31152;49.190;8.122;2022-08-19T11:10:52;26.50;90.00
30186;DHT22;31152;49.190;8.122;2022-08-19T11:13:29;26.40;90.30
30186;DHT22;31152;49.190;8.122;2022-08-19T11:15:59;26.40;90.40
30186;DHT22;31152;49.190;8.122;2022-08-19T11:18:36;26.30;90.50
30186;DHT22;31152;49.190;8.122;2022-08-19T11:21:30;26.40;90.40
30186;DHT22;31152;49.190;8.122;2022-08-19T11:24:04;26.60;90.00
30186;DHT22;31152;49.190;8.122;2022-08-19T11:26:33;26.80;89.20
30186;DHT22;31152;49.190;8.122;2022-08-19T11:29:01;27.00;87.40
30186;DHT22;31152;49.190;8.122;2022-08-19T11:31:30;27.20;87.00
30186;DHT22;31152;49.190;8.122;2022-08-19T11:33:58;27.30;83.80
30186;DHT22;31152;49.190;8.122;2022-08-19T11:36:30;27.60;83.30
30186;DHT22;31152;49.190;8.122;2022-08-19T11:39:01;27.70;80.80
30186;DHT22;31152;49.190;8.122;2022-08-19T11:41:28;27.90;80.90
30186;DHT22;31152;49.190;8.122;2022-08-19T11:43:57;28.00;79.00
30186;DHT22;31152;49.190;8.122;2022-08-19T11:46:25;28.00;78.80
30186;DHT22;31152;49.190;8.122;2022-08-19T11:48:52;28.00;79.00
30186;DHT22;31152;49.190;8.122;2022-08-19T11:51:21;28.10;78.60
30186;DHT22;31152;49.190;8.122;2022-08-19T11:53:49;28.30;76.10
30186;DHT22;31152;49.190;8.122;2022-08-19T11:56:17;28.50;74.50
30186;DHT22;31152;49.190;8.122;2022-08-19T11:58:45;28.60;74.50
30186;DHT22;31152;49.190;8.122;2022-08-19T12:01:13;28.60;73.20
30186;DHT22;31152;49.190;8.122;2022-08-19T12:03:44;28.10;68.30
30186;DHT22;31152;49.190;8.122;2022-08-19T12:06:15;28.10;68.50
30186;DHT22;31152;49.190;8.122;2022-08-19T12:08:43;28.20;68.90
30186;DHT22;31152;49.190;8.122;2022-08-19T12:11:12;28.40;67.60
30186;DHT22;31152;49.190;8.122;2022-08-19T12:13:40;28.60;66.00
30186;DHT22;31152;49.190;8.122;2022-08-19T12:16:11;28.60;66.10
30186;DHT22;31152;49.190;8.122;2022-08-19T12:18:39;28.90;65.90
30186;DHT22;31152;49.190;8.122;2022-08-19T12:21:17;29.10;64.20
30186;DHT22;31152;49.190;8.122;2022-08-19T12:23:44;29.10;63.40
30186;DHT22;31152;49.190;8.122;2022-08-19T12:26:12;29.20;63.70
30186;DHT22;31152;49.190;8.122;2022-08-19T12:28:39;29.40;63.30
30186;DHT22;31152;49.190;8.122;2022-08-19T12:31:06;29.60;61.80
30186;DHT22;31152;49.190;8.122;2022-08-19T12:33:33;29.60;61.60
30186;DHT22;31152;49.190;8.122;2022-08-19T12:36:07;29.50;61.50
30186;DHT22;31152;49.190;8.122;2022-08-19T12:38:34;29.20;61.70
30186;DHT22;31152;49.190;8.122;2022-08-19T12:41:01;29.00;62.30
30186;DHT22;31152;49.190;8.122;2022-08-19T12:43:34;28.90;62.50
30186;DHT22;31152;49.190;8.122;2022-08-19T12:46:08;28.90;63.20
30186;DHT22;31152;49.190;8.122;2022-08-19T12:48:37;28.90;63.70
30186;DHT22;31152;49.190;8.122;2022-08-19T12:51:11;28.80;63.20
30186;DHT22;31152;49.190;8.122;2022-08-19T12:53:39;28.60;63.10
30186;DHT22;31152;49.190;8.122;2022-08-19T12:56:07;28.50;63.50
30186;DHT22;31152;49.190;8.122;2022-08-19T12:58:38;28.30;64.20
30186;DHT22;31152;49.190;8.122;2022-08-19T13:01:11;28.20;64.80
30186;DHT22;31152;49.190;8.122;2022-08-19T13:03:41;28.20;64.40
30186;DHT22;31152;49.190;8.122;2022-08-19T13:06:08;28.30;63.90
30186;DHT22;31152;49.190;8.122;2022-08-19T13:08:38;28.50;63.70
30186;DHT22;31152;49.190;8.122;2022-08-19T13:11:16;28.60;63.70
30186;DHT22;31152;49.190;8.122;2022-08-19T13:13:46;28.70;64.00
30186;DHT22;31152;49.190;8.122;2022-08-19T13:16:15;28.80;63.90
30186;DHT22;31152;49.190;8.122;2022-08-19T13:18:45;28.70;64.20
30186;DHT22;31152;49.190;8.122;2022-08-19T13:21:17;28.50;64.90
30186;DHT22;31152;49.190;8.122;2022-08-19T13:23:52;28.40;65.00
30186;DHT22;31152;49.190;8.122;2022-08-19T13:26:23;28.30;65.30
30186;DHT22;31152;49.190;8.122;2022-08-19T13:28:52;28.20;66.20
30186;DHT22;31152;49.190;8.122;2022-08-19T13:31:40;28.40;66.30
30186;DHT22;31152;49.190;8.122;2022-08-19T13:34:32;28.70;65.20
30186;DHT22;31152;49.190;8.122;2022-08-19T13:37:01;29.00;64.00
30186;DHT22;31152;49.190;8.122;2022-08-19T13:39:30;29.20;62.10
30186;DHT22;31152;49.190;8.122;2022-08-19T13:41:58;29.30;61.70
30186;DHT22;31152;49.190;8.122;2022-08-19T13:44:30;29.30;61.60
30186;DHT22;31152;49.190;8.122;2022-08-19T13:47:05;29.30;61.60
30186;DHT22;31152;49.190;8.122;2022-08-19T13:49:36;29.30;62.30
30186;DHT22;31152;49.190;8.122;2022-08-19T13:52:04;29.50;60.80
30186;DHT22;31152;49.190;8.122;2022-08-19T13:54:31;29.50;60.00
30186;DHT22;31152;49.190;8.122;2022-08-19T13:57:00;29.50;60.90
30186;DHT22;31152;49.190;8.122;2022-08-19T13:59:27;29.50;60.00
30186;DHT22;31152;49.190;8.122;2022-08-19T14:02:00;29.40;59.90
30186;DHT22;31152;49.190;8.122;2022-08-19T14:04:27;29.30;60.00
30186;DHT22;31152;49.190;8.122;2022-08-19T14:06:54;29.10;60.30
30186;DHT22;31152;49.190;8.122;2022-08-19T14:09:21;28.90;61.50
30186;DHT22;31152;49.190;8.122;2022-08-19T14:11:48;28.50;61.90
30186;DHT22;31152;49.190;8.122;2022-08-19T14:14:16;28.30;62.60
30186;DHT22;31152;49.190;8.122;2022-08-19T14:16:43;28.20;62.30
30186;DHT22;31152;49.190;8.122;2022-08-19T14:19:12;28.00;62.90
30186;DHT22;31152;49.190;8.122;2022-08-19T14:21:41;27.90;63.50
30186;DHT22;31152;49.190;8.122;2022-08-19T14:24:08;27.80;63.30
30186;DHT22;31152;49.190;8.122;2022-08-19T14:26:35;27.80;63.40
30186;DHT22;31152;49.190;8.122;2022-08-19T14:29:02;27.80;63.90
30186;DHT22;31152;49.190;8.122;2022-08-19T14:31:28;27.80;63.80
30186;DHT22;31152;49.190;8.122;2022-08-19T14:33:56;27.80;63.40
30186;DHT22;31152;49.190;8.122;2022-08-19T14:36:23;27.80;62.30
30186;DHT22;31152;49.190;8.122;2022-08-19T14:38:50;27.70;62.50
30186;DHT22;31152;49.190;8.122;2022-08-19T14:41:20;27.70;62.80
30186;DHT22;31152;49.190;8.122;2022-08-19T14:43:49;27.70;63.50
30186;DHT22;31152;49.190;8.122;2022-08-19T14:46:22;27.70;63.70
30186;DHT22;31152;49.190;8.122;2022-08-19T14:48:50;27.70;62.90
30186;DHT22;31152;49.190;8.122;2022-08-19T14:51:19;27.70;63.30
30186;DHT22;31152;49.190;8.122;2022-08-19T14:53:48;27.60;62.90
30186;DHT22;31152;49.190;8.122;2022-08-19T14:56:19;27.70;63.00
30186;DHT22;31152;49.190;8.122;2022-08-19T14:58:46;27.70;62.90
30186;DHT22;31152;49.190;8.122;2022-08-19T15:01:13;27.70;63.10
30186;DHT22;31152;49.190;8.122;2022-08-19T15:03:40;27.70;63.70
30186;DHT22;31152;49.190;8.122;2022-08-19T15:06:08;27.80;66.60
30186;DHT22;31152;49.190;8.122;2022-08-19T15:08:39;27.80;65.40
30186;DHT22;31152;49.190;8.122;2022-08-19T15:11:13;27.90;65.70
30186;DHT22;31152;49.190;8.122;2022-08-19T15:13:41;28.00;65.30
30186;DHT22;31152;49.190;8.122;2022-08-19T15:16:09;28.10;63.50
30186;DHT22;31152;49.190;8.122;2022-08-19T15:18:45;28.10;66.20
30186;DHT22;31152;49.190;8.122;2022-08-19T15:21:14;28.20;67.90
30186;DHT22;31152;49.190;8.122;2022-08-19T15:23:54;28.30;62.70
30186;DHT22;31152;49.190;8.122;2022-08-19T15:26:22;28.30;61.40
30186;DHT22;31152;49.190;8.122;2022-08-19T15:28:54;28.30;61.00
30186;DHT22;31152;49.190;8.122;2022-08-19T15:31:21;28.40;61.10
30186;DHT22;31152;49.190;8.122;2022-08-19T15:33:55;28.40;60.20
30186;DHT22;31152;49.190;8.122;2022-08-19T15:36:26;28.50;66.00
30186;DHT22;31152;49.190;8.122;2022-08-19T15:38:53;28.60;61.30
30186;DHT22;31152;49.190;8.122;2022-08-19T15:41:24;28.70;58.70
30186;DHT22;31152;49.190;8.122;2022-08-19T15:44:09;28.70;59.10
30186;DHT22;31152;49.190;8.122;2022-08-19T15:46:40;28.80;58.90
30186;DHT22;31152;49.190;8.122;2022-08-19T15:49:08;29.00;57.80
30186;DHT22;31152;49.190;8.122;2022-08-19T15:51:36;29.20;57.10
30186;DHT22;31152;49.190;8.122;2022-08-19T15:54:06;29.20;58.60
30186;DHT22;31152;49.190;8.122;2022-08-19T15:56:34;29.20;56.20
30186;DHT22;31152;49.190;8.122;2022-08-19T15:59:24;29.10;57.90